createdAt,value
2023-02-24T00:04:21.532Z,26.48
2023-02-24T00:09:27.163Z,30.17
2023-02-24T00:14:34.147Z,29.75
2023-02-24T00:19:38.370Z,28.25
2023-02-24T00:24:42.011Z,29.48
2023-02-24T00:29:47.419Z,30.77
2023-02-24T00:34:50.661Z,30.38
2023-02-24T00:39:58.481Z,30.02
2023-02-24T00:45:07.972Z,34.20
2023-02-24T00:50:14.189Z,30.67
2023-02-24T00:55:19.237Z,29.83
2023-02-24T01:00:24.058Z,29.13
2023-02-24T01:05:27.875Z,23.30
2023-02-24T01:10:30.761Z,25.52
2023-02-24T01:15:34.950Z,26.95
2023-02-24T01:20:38.561Z,22.65
2023-02-24T01:25:47.820Z,22.65
2023-02-24T01:30:52.145Z,21.27
2023-02-24T01:35:55.849Z,21.77
2023-02-24T01:40:59.315Z,22.27
2023-02-24T01:46:03.534Z,22.65
2023-02-24T01:51:08.320Z,23.17
2023-02-24T01:56:13.748Z,23.65
2023-02-24T02:01:20.615Z,24.00
2023-02-24T02:11:27.362Z,23.20
2023-02-24T02:16:46.923Z,22.80
2023-02-24T02:22:05.429Z,23.67
2023-02-24T02:27:23.779Z,23.60
2023-02-24T02:33:01.878Z,29.08
2023-02-24T02:38:15.239Z,29.85
2023-02-24T02:43:27.662Z,29.17
2023-02-24T02:48:36.249Z,30.25
2023-02-24T02:53:49.341Z,27.92
2023-02-24T02:58:55.527Z,30.67
2023-02-24T03:04:04.583Z,31.90
2023-02-24T03:09:18.243Z,26.75
2023-02-24T03:14:26.676Z,33.13
2023-02-24T03:19:37.308Z,32.17
2023-02-24T03:24:42.681Z,33.70
2023-02-24T03:29:54.846Z,35.95
2023-02-24T03:35:04.651Z,36.70
2023-02-24T03:40:14.740Z,37.63
2023-02-24T03:45:21.436Z,39.60
2023-02-24T03:50:26.927Z,39.10
2023-02-24T03:55:47.665Z,38.80
2023-02-24T04:00:57.104Z,33.33
2023-02-24T04:06:11.349Z,39.22
2023-02-24T04:11:27.250Z,38.55
2023-02-24T04:16:36.501Z,36.45
2023-02-24T04:21:43.027Z,35.95
2023-02-24T04:26:58.836Z,38.80
2023-02-24T04:32:07.592Z,36.75
2023-02-24T04:37:10.641Z,37.22
2023-02-24T04:42:15.000Z,36.60
2023-02-24T04:47:17.709Z,34.45
2023-02-24T04:52:20.709Z,35.30
2023-02-24T04:57:25.636Z,35.00
2023-02-24T05:02:28.378Z,36.38
2023-02-24T05:07:31.076Z,33.42
2023-02-24T05:12:35.335Z,33.75
2023-02-24T05:17:38.140Z,32.42
2023-02-24T05:22:40.935Z,32.20
2023-02-24T05:27:45.129Z,30.42
2023-02-24T05:32:48.992Z,27.85
2023-02-24T05:37:52.133Z,25.13
2023-02-24T05:42:58.209Z,23.95
2023-02-24T05:48:01.345Z,27.33
2023-02-24T05:53:04.605Z,27.95
2023-02-24T05:58:09.199Z,26.83
2023-02-24T06:03:17.378Z,28.20
2023-02-24T06:08:24.477Z,27.20
2023-02-24T06:13:29.478Z,27.08
2023-02-24T06:18:32.284Z,30.05
2023-02-24T06:23:35.160Z,30.95
2023-02-24T06:28:39.893Z,30.60
2023-02-24T06:33:42.970Z,27.70
2023-02-24T06:38:46.232Z,27.77
2023-02-24T06:43:51.048Z,27.42
2023-02-24T06:48:53.897Z,27.58
2023-02-24T06:53:59.448Z,28.92
2023-02-24T06:59:04.644Z,27.25
2023-02-24T07:04:18.907Z,26.70
2023-02-24T07:09:24.921Z,26.02
2023-02-24T07:14:31.257Z,26.85
2023-02-24T07:19:35.021Z,29.63
2023-02-24T07:24:43.040Z,27.58
2023-02-24T07:29:47.128Z,28.50
2023-02-24T07:34:50.493Z,27.48
2023-02-24T07:39:54.658Z,27.27
2023-02-24T07:44:58.936Z,29.13
2023-02-24T07:50:02.979Z,26.75
2023-02-24T07:55:07.002Z,25.67
2023-02-24T08:00:19.436Z,26.85
2023-02-24T08:05:28.144Z,29.90
2023-02-24T08:10:37.558Z,27.20
2023-02-24T08:15:45.310Z,24.55
2023-02-24T08:20:52.400Z,23.80
2023-02-24T08:30:59.821Z,26.10
2023-02-24T08:36:02.877Z,26.17
2023-02-24T08:41:07.595Z,27.42
2023-02-24T08:46:19.250Z,27.27
2023-02-24T08:51:28.721Z,28.27
2023-02-24T08:56:34.642Z,26.63
2023-02-24T09:02:03.658Z,26.15
2023-02-24T09:07:15.263Z,24.52
2023-02-24T09:12:24.727Z,25.42
2023-02-24T09:17:51.018Z,22.25
2023-02-24T09:23:00.568Z,23.08
2023-02-24T09:28:09.194Z,24.75
2023-02-24T09:33:20.133Z,20.42
2023-02-24T09:38:46.008Z,22.10
2023-02-24T09:43:48.830Z,21.15
2023-02-24T09:49:05.373Z,19.70
2023-02-24T09:54:15.480Z,20.60
2023-02-24T09:59:29.089Z,16.70
2023-02-24T10:04:56.598Z,15.23
2023-02-24T10:10:19.462Z,14.85
2023-02-24T10:16:06.293Z,12.95
2023-02-24T10:21:30.428Z,12.75
2023-02-24T10:26:51.324Z,12.13
2023-02-24T10:32:24.809Z,11.57
2023-02-24T10:37:30.345Z,9.25
2023-02-24T10:42:34.481Z,9.25
2023-02-24T10:47:37.329Z,11.80
2023-02-24T10:53:10.933Z,10.80
2023-02-24T10:58:27.858Z,11.30
2023-02-24T11:03:41.973Z,12.82
2023-02-24T11:08:54.644Z,10.82
2023-02-24T11:14:17.290Z,9.02
2023-02-24T11:19:20.064Z,9.80
2023-02-24T11:24:24.709Z,12.15
2023-02-24T11:29:43.432Z,10.15
2023-02-24T11:34:53.851Z,9.73
2023-02-24T11:40:02.719Z,10.23
2023-02-24T11:45:14.052Z,9.82
2023-02-24T11:50:29.353Z,9.32
2023-02-24T11:55:38.707Z,7.90
2023-02-24T12:00:49.251Z,9.68
2023-02-24T12:05:57.417Z,8.60
2023-02-24T12:11:09.753Z,8.75
2023-02-24T12:16:18.510Z,9.48
2023-02-24T12:21:30.561Z,8.50
2023-02-24T12:26:42.677Z,8.48
2023-02-24T12:31:57.349Z,8.82
2023-02-24T12:37:27.540Z,7.88
2023-02-24T12:42:40.805Z,7.70
2023-02-24T12:48:00.270Z,9.40
2023-02-24T12:53:12.174Z,8.75
2023-02-24T12:58:20.681Z,7.93
2023-02-24T13:03:33.492Z,8.70
2023-02-24T13:08:46.716Z,8.07
2023-02-24T13:13:58.795Z,8.48
2023-02-24T13:19:19.325Z,8.77
2023-02-24T13:24:24.113Z,7.80
2023-02-24T13:29:28.348Z,8.50
2023-02-24T13:34:34.863Z,8.60
2023-02-24T13:39:41.325Z,8.63
2023-02-24T13:44:53.326Z,7.78
2023-02-24T13:50:09.326Z,7.68
2023-02-24T13:55:25.223Z,5.67
2023-02-24T14:00:47.676Z,6.35
2023-02-24T14:05:52.822Z,7.28
2023-02-24T14:10:58.588Z,9.45
2023-02-24T14:16:07.532Z,9.32
2023-02-24T14:21:21.621Z,4.78
2023-02-24T14:26:24.909Z,4.32
2023-02-24T14:31:30.229Z,4.57
2023-02-24T14:36:37.732Z,7.70
2023-02-24T14:41:40.557Z,7.57
2023-02-24T14:46:52.535Z,7.53
2023-02-24T14:52:00.912Z,18.38
2023-02-24T14:57:05.792Z,14.30
2023-02-24T15:02:18.526Z,5.07
2023-02-24T15:07:26.918Z,4.32
2023-02-24T15:12:33.881Z,4.63
2023-02-24T15:17:42.405Z,4.60
2023-02-24T15:22:50.481Z,5.47
2023-02-24T15:27:54.929Z,5.38
2023-02-24T15:33:08.038Z,4.88
2023-02-24T15:38:23.641Z,4.78
2023-02-24T15:43:35.016Z,5.47
2023-02-24T15:48:43.959Z,6.35
2023-02-24T15:53:46.786Z,5.43
2023-02-24T15:58:50.312Z,4.88
2023-02-24T16:03:54.483Z,5.50
2023-02-24T16:08:58.745Z,6.80
2023-02-24T16:14:01.869Z,6.35
2023-02-24T16:19:06.848Z,6.65
2023-02-24T16:24:09.772Z,6.45
2023-02-24T16:29:16.194Z,7.57
2023-02-24T16:34:20.384Z,6.72
2023-02-24T16:39:23.822Z,7.00
2023-02-24T16:44:26.703Z,6.82
2023-02-24T16:49:30.969Z,7.07
2023-02-24T16:54:33.852Z,7.07
2023-02-24T16:59:36.868Z,6.60
2023-02-24T17:04:41.248Z,6.40
2023-02-24T17:09:44.194Z,6.80
2023-02-24T17:14:47.100Z,7.07
2023-02-24T17:19:51.601Z,6.07
2023-02-24T17:24:54.373Z,6.55
2023-02-24T17:29:57.237Z,7.20
2023-02-24T17:35:01.440Z,6.72
2023-02-24T17:40:06.498Z,6.63
2023-02-24T17:45:11.919Z,11.32
2023-02-24T17:50:16.918Z,8.60
2023-02-24T17:55:20.016Z,7.97
2023-02-24T18:00:22.926Z,8.95
2023-02-24T18:05:27.347Z,8.85
2023-02-24T18:10:30.089Z,9.23
2023-02-24T18:15:32.868Z,10.90
2023-02-24T18:20:37.198Z,11.07
2023-02-24T18:25:40.273Z,10.07
2023-02-24T18:30:43.211Z,9.32
2023-02-24T18:35:47.885Z,8.70
2023-02-24T18:40:58.176Z,9.60
2023-02-24T18:46:02.867Z,9.25
2023-02-24T18:51:08.030Z,9.70
2023-02-24T18:56:13.762Z,10.85
2023-02-24T19:01:19.836Z,10.82
2023-02-24T19:06:26.663Z,14.65
2023-02-24T19:11:30.524Z,12.38
2023-02-24T19:16:34.422Z,10.07
2023-02-24T19:21:38.695Z,10.43
2023-02-24T19:26:44.937Z,11.15
2023-02-24T19:31:53.819Z,11.57
2023-02-24T19:36:58.303Z,12.38
2023-02-24T19:42:02.065Z,11.85
2023-02-24T19:47:05.003Z,10.10
2023-02-24T19:52:09.291Z,9.32
2023-02-24T19:57:12.032Z,9.75
2023-02-24T20:02:14.757Z,9.27
2023-02-24T20:07:18.883Z,10.48
2023-02-24T20:12:22.046Z,11.45
2023-02-24T20:17:24.905Z,12.02
2023-02-24T20:22:29.048Z,12.25
2023-02-24T20:27:32.666Z,13.82
2023-02-24T20:32:35.771Z,11.40
2023-02-24T20:37:40.291Z,12.05
2023-02-24T20:42:43.123Z,11.93
2023-02-24T20:47:45.865Z,12.23
2023-02-24T20:52:50.184Z,10.23
2023-02-24T20:57:52.927Z,11.05
2023-02-24T21:02:58.523Z,11.45
2023-02-24T21:08:02.652Z,10.93
2023-02-24T21:13:08.323Z,43.42
2023-02-24T21:18:11.251Z,33.08
2023-02-24T21:23:15.525Z,19.02
2023-02-24T21:28:19.345Z,6.85
2023-02-24T21:33:22.250Z,5.90
2023-02-24T21:38:26.961Z,4.85
2023-02-24T21:43:29.944Z,5.50
2023-02-24T21:48:33.439Z,4.32
2023-02-24T21:53:40.779Z,4.53
2023-02-24T21:58:45.905Z,5.30
2023-02-24T22:03:48.664Z,5.53
2023-02-24T22:08:52.899Z,6.22
2023-02-24T22:13:55.751Z,6.07
2023-02-24T22:18:58.749Z,5.05
2023-02-24T22:24:04.805Z,5.45
2023-02-24T22:29:08.017Z,5.57
2023-02-24T22:34:10.763Z,4.68
2023-02-24T22:39:16.732Z,4.28
2023-02-24T22:44:21.067Z,4.20
2023-02-24T22:49:24.109Z,5.28
2023-02-24T22:54:28.434Z,5.95
2023-02-24T22:59:31.276Z,6.95
2023-02-24T23:04:35.182Z,6.93
2023-02-24T23:09:39.298Z,6.45
2023-02-24T23:14:42.026Z,7.57
2023-02-24T23:19:44.797Z,6.43
2023-02-24T23:24:50.852Z,7.60
2023-02-24T23:29:53.630Z,7.85
2023-02-24T23:34:56.592Z,7.22
2023-02-24T23:40:00.653Z,9.15
2023-02-24T23:45:03.955Z,8.93
2023-02-24T23:50:07.664Z,10.30
2023-02-24T23:55:12.476Z,9.10
